Ash Shariqah, United Arab Emirates
Current Conditions -  °F | °C
As of 8:00 AM on Tuesday 21 Oct 2014 (Local Time) from OMSJ Reporting Station
Clear Clear  
Wind Chill: 79°   Ceiling: Unl
Heat Index: 81°   Visibility: 6mi
Dew Point: 66°   Wind: 3mph
Humidity: 65%   Direction: 100°E
Pressure: 29.97"   Gusts: NA
Location:  25.37°N, 55.41°E
Report Text: OMSJ 210400Z 10003KT CAVOK 26/19 Q1015
Loading
Personal Weather Stations






























Interactive Weather Map
Tropical Storm Tracking
New forecast layout! Learn more

10-Day Weather Forecast

Advertisements
Track Severe Weather on mobile